Airfield :
LOGIN :

Register | Disclaimer

   EN    FR    IT 

 










Legend :    VFR   Marginal VFR   IFR   Intensive IFR   Very Intensive IFR
Visi :
Ceiling :
>= 8 km
>= 3000ft
5 to 8 km
1000 to 3000 ft
1500m to 5 km
500 to 1000 ft
800 to 1500m
200 to 500 ft
< 800m
< 200 ft
Symbols :   Thunderstorms  Fog  Heavy snow  Heavy precipitations  Wind > 20 kt
SIGMETs :     Misc.  Thunderstorms  Icing  Turbulence  Mountain Waves  Volcanic Ashes






- Airport Elevation : 147 ft
- IATA code : DUS


EDDL - Düsseldorf Int.

CURRENT METAR :
  • 040820Z 30006KT 240V340 9999 FEW022 19/12 Q1017 NOSIG

EXPIRED METARs :
  • 040750Z 30006KT 270V340 9999 FEW020 19/12 Q1017 NOSIG
  • 040720Z 32005KT 290V360 9999 FEW013 17/12 Q1017 NOSIG
  • 040650Z 33006KT 300V360 9999 FEW013 17/13 Q1017 NOSIG
  • 040620Z 32005KT 280V360 9999 FEW014 16/13 Q1016 NOSIG
  • 040550Z 34004KT 9999 FEW014 15/13 Q1016 NOSIG

TAF TAF EDDL
Valid from the 04 at 06:00 until the 05 at 12:00 UTC


040500Z 0406/0512 33006KT CAVOK
BECMG 0418/0420 VRB03KT
BECMG 0500/0502 15006KT
BECMG 0507/0509 21008KT



MET'MAP, your aeronautical weather chart ! - Copyright ORBIFLY December 2007 - Disclaimer

ORBIFLY MET'MAP TEAM :

Programming & Development : Alexandra Zaïnal
Concept & original design : Baudouin d'Aumeries
Assistance for programming : Marc-Olivier Méhu
Technical & hardware support : Manuel Goepfert

Contact : metmap@orbifly.com




SOURCES & CREDITS :

   NOAA